sensor_id;sensor_type;location;lat;lon;timestamp;P1;durP1;ratioP1;P2;durP2;ratioP2
50483;SDS011;36409;52.168;20.878;2022-11-20T00:01:51;61.43;;;29.43;;
50483;SDS011;36409;52.168;20.878;2022-11-20T00:04:19;61.67;;;27.20;;
50483;SDS011;36409;52.168;20.878;2022-11-20T00:06:48;66.87;;;30.77;;
50483;SDS011;36409;52.168;20.878;2022-11-20T00:09:17;71.03;;;30.73;;
50483;SDS011;36409;52.168;20.878;2022-11-20T00:11:46;67.43;;;29.63;;
50483;SDS011;36409;52.168;20.878;2022-11-20T00:14:15;68.90;;;30.43;;
50483;SDS011;36409;52.168;20.878;2022-11-20T00:16:44;67.63;;;30.60;;
50483;SDS011;36409;52.168;20.878;2022-11-20T00:19:13;63.13;;;28.40;;
50483;SDS011;36409;52.168;20.878;2022-11-20T00:21:43;66.70;;;30.10;;
50483;SDS011;36409;52.168;20.878;2022-11-20T00:24:14;62.33;;;29.17;;
50483;SDS011;36409;52.168;20.878;2022-11-20T00:26:51;64.30;;;30.57;;
50483;SDS011;36409;52.168;20.878;2022-11-20T00:29:20;58.33;;;31.03;;
50483;SDS011;36409;52.168;20.878;2022-11-20T00:31:50;68.30;;;31.57;;
50483;SDS011;36409;52.168;20.878;2022-11-20T00:34:18;60.40;;;30.10;;
50483;SDS011;36409;52.168;20.878;2022-11-20T00:36:47;69.97;;;33.73;;
50483;SDS011;36409;52.168;20.878;2022-11-20T00:39:16;63.70;;;30.23;;
50483;SDS011;36409;52.168;20.878;2022-11-20T00:41:46;66.73;;;31.57;;
50483;SDS011;36409;52.168;20.878;2022-11-20T00:44:14;63.10;;;30.37;;
50483;SDS011;36409;52.168;20.878;2022-11-20T00:46:43;66.13;;;31.77;;
50483;SDS011;36409;52.168;20.878;2022-11-20T00:49:12;67.27;;;32.20;;
50483;SDS011;36409;52.168;20.878;2022-11-20T00:51:41;61.50;;;30.03;;
50483;SDS011;36409;52.168;20.878;2022-11-20T00:54:10;64.70;;;31.40;;
50483;SDS011;36409;52.168;20.878;2022-11-20T00:56:39;67.73;;;31.60;;
50483;SDS011;36409;52.168;20.878;2022-11-20T00:59:08;60.43;;;30.70;;
50483;SDS011;36409;52.168;20.878;2022-11-20T01:01:38;60.60;;;29.00;;
50483;SDS011;36409;52.168;20.878;2022-11-20T01:04:07;66.30;;;31.30;;
50483;SDS011;36409;52.168;20.878;2022-11-20T01:06:36;61.00;;;29.47;;
50483;SDS011;36409;52.168;20.878;2022-11-20T01:09:08;61.53;;;30.57;;
50483;SDS011;36409;52.168;20.878;2022-11-20T01:11:39;60.27;;;29.17;;
50483;SDS011;36409;52.168;20.878;2022-11-20T01:14:10;64.40;;;29.57;;
50483;SDS011;36409;52.168;20.878;2022-11-20T01:16:42;59.40;;;28.10;;
50483;SDS011;36409;52.168;20.878;2022-11-20T01:19:13;62.10;;;27.30;;
50483;SDS011;36409;52.168;20.878;2022-11-20T01:21:45;61.80;;;28.37;;
50483;SDS011;36409;52.168;20.878;2022-11-20T01:24:16;64.37;;;30.93;;
50483;SDS011;36409;52.168;20.878;2022-11-20T01:26:47;64.30;;;29.95;;
50483;SDS011;36409;52.168;20.878;2022-11-20T01:29:17;67.50;;;30.07;;
50483;SDS011;36409;52.168;20.878;2022-11-20T01:31:48;65.03;;;30.60;;
50483;SDS011;36409;52.168;20.878;2022-11-20T01:34:19;65.37;;;30.40;;
50483;SDS011;36409;52.168;20.878;2022-11-20T01:36:49;67.47;;;31.60;;
50483;SDS011;36409;52.168;20.878;2022-11-20T01:39:20;68.53;;;33.00;;
50483;SDS011;36409;52.168;20.878;2022-11-20T01:41:51;72.90;;;31.27;;
50483;SDS011;36409;52.168;20.878;2022-11-20T01:44:50;67.07;;;30.53;;
50483;SDS011;36409;52.168;20.878;2022-11-20T01:47:25;65.25;;;32.78;;
50483;SDS011;36409;52.168;20.878;2022-11-20T01:50:01;64.25;;;30.35;;
50483;SDS011;36409;52.168;20.878;2022-11-20T01:52:36;60.70;;;30.47;;
50483;SDS011;36409;52.168;20.878;2022-11-20T01:55:09;64.23;;;29.13;;
50483;SDS011;36409;52.168;20.878;2022-11-20T01:57:42;63.37;;;29.63;;
50483;SDS011;36409;52.168;20.878;2022-11-20T02:00:15;54.90;;;25.90;;
50483;SDS011;36409;52.168;20.878;2022-11-20T02:02:50;62.33;;;28.73;;
50483;SDS011;36409;52.168;20.878;2022-11-20T02:05:24;61.03;;;27.47;;
50483;SDS011;36409;52.168;20.878;2022-11-20T02:07:56;54.13;;;26.47;;
50483;SDS011;36409;52.168;20.878;2022-11-20T02:10:26;59.03;;;29.37;;
50483;SDS011;36409;52.168;20.878;2022-11-20T02:12:59;61.57;;;27.60;;
50483;SDS011;36409;52.168;20.878;2022-11-20T02:15:48;58.47;;;29.07;;
50483;SDS011;36409;52.168;20.878;2022-11-20T02:18:18;89.63;;;38.90;;
50483;SDS011;36409;52.168;20.878;2022-11-20T02:20:52;98.53;;;41.43;;
50483;SDS011;36409;52.168;20.878;2022-11-20T02:23:30;98.77;;;41.77;;
50483;SDS011;36409;52.168;20.878;2022-11-20T02:26:05;113.37;;;47.63;;
50483;SDS011;36409;52.168;20.878;2022-11-20T02:28:38;107.97;;;48.87;;
50483;SDS011;36409;52.168;20.878;2022-11-20T02:31:08;94.23;;;47.07;;
50483;SDS011;36409;52.168;20.878;2022-11-20T02:33:37;85.63;;;40.87;;
50483;SDS011;36409;52.168;20.878;2022-11-20T02:36:07;75.10;;;34.73;;
50483;SDS011;36409;52.168;20.878;2022-11-20T02:38:38;63.97;;;31.23;;
50483;SDS011;36409;52.168;20.878;2022-11-20T02:41:07;58.23;;;28.90;;
50483;SDS011;36409;52.168;20.878;2022-11-20T02:43:39;60.93;;;28.63;;
50483;SDS011;36409;52.168;20.878;2022-11-20T02:46:11;63.75;;;28.50;;
50483;SDS011;36409;52.168;20.878;2022-11-20T02:48:41;63.20;;;29.10;;
50483;SDS011;36409;52.168;20.878;2022-11-20T02:51:13;59.97;;;29.17;;
50483;SDS011;36409;52.168;20.878;2022-11-20T02:53:46;57.10;;;28.07;;
50483;SDS011;36409;52.168;20.878;2022-11-20T02:56:15;56.10;;;28.53;;
50483;SDS011;36409;52.168;20.878;2022-11-20T02:58:44;58.00;;;29.40;;
50483;SDS011;36409;52.168;20.878;2022-11-20T03:01:14;56.70;;;28.20;;
50483;SDS011;36409;52.168;20.878;2022-11-20T03:03:43;60.33;;;29.10;;
50483;SDS011;36409;52.168;20.878;2022-11-20T03:06:15;57.93;;;28.97;;
50483;SDS011;36409;52.168;20.878;2022-11-20T03:08:47;57.47;;;28.43;;
50483;SDS011;36409;52.168;20.878;2022-11-20T03:11:15;52.97;;;26.37;;
50483;SDS011;36409;52.168;20.878;2022-11-20T03:13:44;62.17;;;28.33;;
50483;SDS011;36409;52.168;20.878;2022-11-20T03:16:15;51.40;;;23.90;;
50483;SDS011;36409;52.168;20.878;2022-11-20T03:18:46;59.13;;;28.90;;
50483;SDS011;36409;52.168;20.878;2022-11-20T03:21:15;55.57;;;27.70;;
50483;SDS011;36409;52.168;20.878;2022-11-20T03:23:45;62.27;;;29.67;;
50483;SDS011;36409;52.168;20.878;2022-11-20T03:26:14;61.43;;;27.30;;
50483;SDS011;36409;52.168;20.878;2022-11-20T03:28:47;59.80;;;30.17;;
50483;SDS011;36409;52.168;20.878;2022-11-20T03:31:17;65.57;;;31.43;;
50483;SDS011;36409;52.168;20.878;2022-11-20T03:33:47;60.43;;;29.00;;
50483;SDS011;36409;52.168;20.878;2022-11-20T03:36:17;67.07;;;30.33;;
50483;SDS011;36409;52.168;20.878;2022-11-20T03:38:47;61.60;;;29.07;;
50483;SDS011;36409;52.168;20.878;2022-11-20T03:41:18;68.10;;;32.10;;
50483;SDS011;36409;52.168;20.878;2022-11-20T03:43:49;64.63;;;30.07;;
50483;SDS011;36409;52.168;20.878;2022-11-20T03:46:19;61.50;;;28.73;;
50483;SDS011;36409;52.168;20.878;2022-11-20T03:48:48;68.57;;;31.27;;
50483;SDS011;36409;52.168;20.878;2022-11-20T03:51:19;63.83;;;29.60;;
50483;SDS011;36409;52.168;20.878;2022-11-20T03:53:49;65.93;;;31.73;;
50483;SDS011;36409;52.168;20.878;2022-11-20T03:56:23;63.67;;;31.63;;
50483;SDS011;36409;52.168;20.878;2022-11-20T03:58:56;61.50;;;29.97;;
50483;SDS011;36409;52.168;20.878;2022-11-20T04:01:26;67.03;;;31.00;;
50483;SDS011;36409;52.168;20.878;2022-11-20T04:03:58;66.70;;;32.03;;
50483;SDS011;36409;52.168;20.878;2022-11-20T04:06:29;71.00;;;30.70;;
50483;SDS011;36409;52.168;20.878;2022-11-20T04:11:30;58.67;;;28.53;;
50483;SDS011;36409;52.168;20.878;2022-11-20T04:14:01;68.20;;;30.13;;
50483;SDS011;36409;52.168;20.878;2022-11-20T04:16:32;69.10;;;31.37;;
50483;SDS011;36409;52.168;20.878;2022-11-20T04:19:04;72.37;;;32.13;;
50483;SDS011;36409;52.168;20.878;2022-11-20T04:21:37;60.85;;;31.00;;
50483;SDS011;36409;52.168;20.878;2022-11-20T04:24:06;67.40;;;31.43;;
50483;SDS011;36409;52.168;20.878;2022-11-20T04:26:38;66.95;;;30.55;;
50483;SDS011;36409;52.168;20.878;2022-11-20T04:29:09;63.03;;;29.97;;
50483;SDS011;36409;52.168;20.878;2022-11-20T04:31:39;63.03;;;30.73;;
50483;SDS011;36409;52.168;20.878;2022-11-20T04:34:10;62.93;;;31.27;;
50483;SDS011;36409;52.168;20.878;2022-11-20T04:36:40;64.27;;;29.93;;
50483;SDS011;36409;52.168;20.878;2022-11-20T04:39:12;63.40;;;31.60;;
50483;SDS011;36409;52.168;20.878;2022-11-20T04:41:42;68.23;;;32.50;;
50483;SDS011;36409;52.168;20.878;2022-11-20T04:44:12;66.00;;;31.17;;
50483;SDS011;36409;52.168;20.878;2022-11-20T04:46:46;65.77;;;32.83;;
50483;SDS011;36409;52.168;20.878;2022-11-20T04:49:34;68.37;;;30.80;;
50483;SDS011;36409;52.168;20.878;2022-11-20T04:52:03;67.00;;;32.50;;
50483;SDS011;36409;52.168;20.878;2022-11-20T04:54:32;66.50;;;29.83;;
50483;SDS011;36409;52.168;20.878;2022-11-20T04:57:02;63.50;;;30.80;;
50483;SDS011;36409;52.168;20.878;2022-11-20T04:59:37;59.37;;;28.73;;
50483;SDS011;36409;52.168;20.878;2022-11-20T05:02:06;64.30;;;30.73;;
50483;SDS011;36409;52.168;20.878;2022-11-20T05:04:35;63.37;;;29.27;;
50483;SDS011;36409;52.168;20.878;2022-11-20T05:07:07;56.60;;;28.75;;
50483;SDS011;36409;52.168;20.878;2022-11-20T05:09:39;59.10;;;28.40;;
50483;SDS011;36409;52.168;20.878;2022-11-20T05:12:09;60.57;;;26.87;;
50483;SDS011;36409;52.168;20.878;2022-11-20T05:14:38;59.23;;;27.73;;
50483;SDS011;36409;52.168;20.878;2022-11-20T05:17:07;60.63;;;28.37;;
50483;SDS011;36409;52.168;20.878;2022-11-20T05:19:45;58.07;;;28.33;;
50483;SDS011;36409;52.168;20.878;2022-11-20T05:22:20;54.97;;;26.23;;
50483;SDS011;36409;52.168;20.878;2022-11-20T05:24:49;63.00;;;30.03;;
50483;SDS011;36409;52.168;20.878;2022-11-20T05:27:18;62.33;;;29.37;;
50483;SDS011;36409;52.168;20.878;2022-11-20T05:29:47;66.95;;;30.65;;
50483;SDS011;36409;52.168;20.878;2022-11-20T05:32:15;67.73;;;30.80;;
50483;SDS011;36409;52.168;20.878;2022-11-20T05:34:44;64.80;;;30.93;;
50483;SDS011;36409;52.168;20.878;2022-11-20T05:37:13;64.33;;;30.07;;
50483;SDS011;36409;52.168;20.878;2022-11-20T05:39:42;64.37;;;29.50;;
50483;SDS011;36409;52.168;20.878;2022-11-20T05:42:13;61.20;;;28.50;;
50483;SDS011;36409;52.168;20.878;2022-11-20T05:44:58;67.12;;;30.23;;
50483;SDS011;36409;52.168;20.878;2022-11-20T05:47:30;57.37;;;28.20;;
50483;SDS011;36409;52.168;20.878;2022-11-20T05:50:01;67.57;;;29.40;;
50483;SDS011;36409;52.168;20.878;2022-11-20T05:52:30;54.40;;;27.70;;
50483;SDS011;36409;52.168;20.878;2022-11-20T05:55:00;55.60;;;28.15;;
50483;SDS011;36409;52.168;20.878;2022-11-20T05:57:34;64.10;;;30.33;;
50483;SDS011;36409;52.168;20.878;2022-11-20T06:00:04;61.50;;;29.30;;
50483;SDS011;36409;52.168;20.878;2022-11-20T06:02:35;55.70;;;27.33;;
50483;SDS011;36409;52.168;20.878;2022-11-20T06:05:04;52.87;;;25.80;;
50483;SDS011;36409;52.168;20.878;2022-11-20T06:07:34;59.57;;;28.17;;
50483;SDS011;36409;52.168;20.878;2022-11-20T06:10:03;61.87;;;29.47;;
50483;SDS011;36409;52.168;20.878;2022-11-20T06:12:33;56.47;;;28.10;;
50483;SDS011;36409;52.168;20.878;2022-11-20T06:15:04;66.77;;;29.73;;
50483;SDS011;36409;52.168;20.878;2022-11-20T06:17:34;64.00;;;30.23;;
50483;SDS011;36409;52.168;20.878;2022-11-20T06:20:06;61.30;;;28.27;;
50483;SDS011;36409;52.168;20.878;2022-11-20T06:22:36;62.17;;;27.23;;
50483;SDS011;36409;52.168;20.878;2022-11-20T06:25:05;64.27;;;28.27;;
50483;SDS011;36409;52.168;20.878;2022-11-20T06:27:35;59.80;;;28.77;;
50483;SDS011;36409;52.168;20.878;2022-11-20T06:30:08;62.17;;;27.93;;
50483;SDS011;36409;52.168;20.878;2022-11-20T06:32:39;57.85;;;28.15;;
50483;SDS011;36409;52.168;20.878;2022-11-20T06:35:10;66.40;;;29.87;;
50483;SDS011;36409;52.168;20.878;2022-11-20T06:37:40;63.27;;;28.80;;
50483;SDS011;36409;52.168;20.878;2022-11-20T06:40:13;68.93;;;31.53;;
50483;SDS011;36409;52.168;20.878;2022-11-20T06:42:41;60.93;;;29.63;;
50483;SDS011;36409;52.168;20.878;2022-11-20T06:45:11;65.73;;;28.63;;
50483;SDS011;36409;52.168;20.878;2022-11-20T06:47:40;60.00;;;28.87;;
50483;SDS011;36409;52.168;20.878;2022-11-20T06:50:10;56.60;;;27.70;;
50483;SDS011;36409;52.168;20.878;2022-11-20T06:52:40;59.63;;;28.93;;
50483;SDS011;36409;52.168;20.878;2022-11-20T06:55:10;59.63;;;29.50;;
50483;SDS011;36409;52.168;20.878;2022-11-20T06:57:41;59.60;;;29.13;;
50483;SDS011;36409;52.168;20.878;2022-11-20T07:00:12;61.27;;;30.97;;
50483;SDS011;36409;52.168;20.878;2022-11-20T07:02:43;56.93;;;28.80;;
50483;SDS011;36409;52.168;20.878;2022-11-20T07:05:12;63.85;;;32.35;;
50483;SDS011;36409;52.168;20.878;2022-11-20T07:07:41;63.30;;;29.30;;
50483;SDS011;36409;52.168;20.878;2022-11-20T07:10:13;59.43;;;27.40;;
50483;SDS011;36409;52.168;20.878;2022-11-20T07:12:48;66.00;;;30.03;;
50483;SDS011;36409;52.168;20.878;2022-11-20T07:15:19;58.87;;;28.47;;
50483;SDS011;36409;52.168;20.878;2022-11-20T07:17:51;56.70;;;29.00;;
50483;SDS011;36409;52.168;20.878;2022-11-20T07:20:25;61.43;;;28.90;;
50483;SDS011;36409;52.168;20.878;2022-11-20T07:22:55;67.53;;;30.17;;
50483;SDS011;36409;52.168;20.878;2022-11-20T07:25:25;62.40;;;29.30;;
50483;SDS011;36409;52.168;20.878;2022-11-20T07:27:58;64.90;;;30.57;;
50483;SDS011;36409;52.168;20.878;2022-11-20T07:30:29;62.37;;;30.43;;
50483;SDS011;36409;52.168;20.878;2022-11-20T07:32:58;59.50;;;30.15;;
50483;SDS011;36409;52.168;20.878;2022-11-20T07:35:27;64.10;;;29.30;;
50483;SDS011;36409;52.168;20.878;2022-11-20T07:38:00;62.50;;;31.57;;
50483;SDS011;36409;52.168;20.878;2022-11-20T07:40:28;57.80;;;29.67;;
50483;SDS011;36409;52.168;20.878;2022-11-20T07:42:57;64.60;;;30.87;;
50483;SDS011;36409;52.168;20.878;2022-11-20T07:45:26;63.47;;;29.80;;
50483;SDS011;36409;52.168;20.878;2022-11-20T07:47:55;64.93;;;31.07;;
50483;SDS011;36409;52.168;20.878;2022-11-20T07:50:24;64.70;;;31.27;;
50483;SDS011;36409;52.168;20.878;2022-11-20T07:53:00;55.33;;;29.43;;
50483;SDS011;36409;52.168;20.878;2022-11-20T07:55:30;61.63;;;31.23;;
50483;SDS011;36409;52.168;20.878;2022-11-20T07:58:00;56.23;;;29.00;;
50483;SDS011;36409;52.168;20.878;2022-11-20T08:00:29;63.53;;;30.57;;
50483;SDS011;36409;52.168;20.878;2022-11-20T08:02:58;63.10;;;31.40;;
50483;SDS011;36409;52.168;20.878;2022-11-20T08:05:26;60.07;;;30.10;;
50483;SDS011;36409;52.168;20.878;2022-11-20T08:07:57;56.53;;;29.73;;
50483;SDS011;36409;52.168;20.878;2022-11-20T08:10:26;56.73;;;30.03;;
50483;SDS011;36409;52.168;20.878;2022-11-20T08:12:55;63.70;;;30.77;;
50483;SDS011;36409;52.168;20.878;2022-11-20T08:15:47;60.23;;;30.20;;
50483;SDS011;36409;52.168;20.878;2022-11-20T08:18:17;63.70;;;30.60;;
50483;SDS011;36409;52.168;20.878;2022-11-20T08:21:04;61.10;;;29.43;;
50483;SDS011;36409;52.168;20.878;2022-11-20T08:23:38;58.83;;;27.53;;
50483;SDS011;36409;52.168;20.878;2022-11-20T08:26:09;58.87;;;30.43;;
50483;SDS011;36409;52.168;20.878;2022-11-20T08:28:37;60.27;;;32.00;;
50483;SDS011;36409;52.168;20.878;2022-11-20T08:31:06;62.67;;;29.40;;
50483;SDS011;36409;52.168;20.878;2022-11-20T08:33:37;63.10;;;31.40;;
50483;SDS011;36409;52.168;20.878;2022-11-20T08:36:06;54.00;;;27.27;;
50483;SDS011;36409;52.168;20.878;2022-11-20T08:38:35;66.50;;;33.87;;
50483;SDS011;36409;52.168;20.878;2022-11-20T08:41:05;67.03;;;33.57;;
50483;SDS011;36409;52.168;20.878;2022-11-20T08:44:06;51.50;;;27.47;;
50483;SDS011;36409;52.168;20.878;2022-11-20T08:46:50;62.60;;;30.35;;
50483;SDS011;36409;52.168;20.878;2022-11-20T08:49:19;56.03;;;30.97;;
50483;SDS011;36409;52.168;20.878;2022-11-20T08:51:50;64.90;;;32.30;;
50483;SDS011;36409;52.168;20.878;2022-11-20T08:54:22;57.77;;;30.70;;
50483;SDS011;36409;52.168;20.878;2022-11-20T08:56:51;57.57;;;31.20;;
50483;SDS011;36409;52.168;20.878;2022-11-20T08:59:19;65.07;;;32.47;;
50483;SDS011;36409;52.168;20.878;2022-11-20T09:02:08;53.70;;;26.80;;
50483;SDS011;36409;52.168;20.878;2022-11-20T09:04:39;68.40;;;33.27;;
50483;SDS011;36409;52.168;20.878;2022-11-20T09:07:10;57.53;;;31.77;;
50483;SDS011;36409;52.168;20.878;2022-11-20T09:09:42;62.37;;;31.80;;
50483;SDS011;36409;52.168;20.878;2022-11-20T09:12:10;61.60;;;31.33;;
50483;SDS011;36409;52.168;20.878;2022-11-20T09:14:39;63.10;;;33.30;;
50483;SDS011;36409;52.168;20.878;2022-11-20T09:17:09;64.83;;;32.67;;
50483;SDS011;36409;52.168;20.878;2022-11-20T09:19:40;66.43;;;33.67;;
50483;SDS011;36409;52.168;20.878;2022-11-20T09:22:11;59.97;;;32.30;;
50483;SDS011;36409;52.168;20.878;2022-11-20T09:24:47;60.53;;;34.27;;
50483;SDS011;36409;52.168;20.878;2022-11-20T09:27:16;62.93;;;34.60;;
50483;SDS011;36409;52.168;20.878;2022-11-20T09:29:48;69.90;;;34.10;;
50483;SDS011;36409;52.168;20.878;2022-11-20T09:32:20;64.53;;;34.37;;
50483;SDS011;36409;52.168;20.878;2022-11-20T09:34:49;64.40;;;33.80;;
50483;SDS011;36409;52.168;20.878;2022-11-20T09:37:18;67.70;;;33.87;;
50483;SDS011;36409;52.168;20.878;2022-11-20T09:39:47;59.80;;;33.27;;
50483;SDS011;36409;52.168;20.878;2022-11-20T09:45:16;62.43;;;32.67;;
50483;SDS011;36409;52.168;20.878;2022-11-20T09:47:55;63.57;;;33.60;;
50483;SDS011;36409;52.168;20.878;2022-11-20T09:50:37;63.20;;;33.40;;
50483;SDS011;36409;52.168;20.878;2022-11-20T09:53:12;58.23;;;32.77;;
50483;SDS011;36409;52.168;20.878;2022-11-20T09:55:48;50.60;;;30.45;;
50483;SDS011;36409;52.168;20.878;2022-11-20T09:58:21;52.37;;;32.13;;
50483;SDS011;36409;52.168;20.878;2022-11-20T10:00:57;51.35;;;32.20;;
50483;SDS011;36409;52.168;20.878;2022-11-20T10:03:37;49.83;;;31.70;;
50483;SDS011;36409;52.168;20.878;2022-11-20T10:06:15;52.30;;;31.97;;
50483;SDS011;36409;52.168;20.878;2022-11-20T10:08:51;51.37;;;31.03;;
50483;SDS011;36409;52.168;20.878;2022-11-20T10:11:30;49.13;;;32.50;;
50483;SDS011;36409;52.168;20.878;2022-11-20T10:14:16;50.00;;;31.55;;
50483;SDS011;36409;52.168;20.878;2022-11-20T10:16:57;47.53;;;31.47;;
50483;SDS011;36409;52.168;20.878;2022-11-20T10:19:43;50.00;;;32.93;;
50483;SDS011;36409;52.168;20.878;2022-11-20T10:22:26;46.40;;;31.53;;
50483;SDS011;36409;52.168;20.878;2022-11-20T10:25:14;51.07;;;31.87;;
50483;SDS011;36409;52.168;20.878;2022-11-20T10:27:48;46.83;;;29.73;;
50483;SDS011;36409;52.168;20.878;2022-11-20T10:30:27;47.60;;;30.30;;
50483;SDS011;36409;52.168;20.878;2022-11-20T10:32:58;46.33;;;29.30;;
50483;SDS011;36409;52.168;20.878;2022-11-20T10:35:33;41.87;;;28.33;;
50483;SDS011;36409;52.168;20.878;2022-11-20T10:38:09;43.10;;;29.03;;
50483;SDS011;36409;52.168;20.878;2022-11-20T10:40:44;46.90;;;29.43;;
50483;SDS011;36409;52.168;20.878;2022-11-20T10:43:17;44.17;;;28.37;;
50483;SDS011;36409;52.168;20.878;2022-11-20T10:46:00;47.80;;;30.00;;
50483;SDS011;36409;52.168;20.878;2022-11-20T10:48:33;43.35;;;28.60;;
50483;SDS011;36409;52.168;20.878;2022-11-20T10:51:10;46.35;;;28.15;;
50483;SDS011;36409;52.168;20.878;2022-11-20T10:56:38;49.10;;;29.63;;
50483;SDS011;36409;52.168;20.878;2022-11-20T10:59:35;47.70;;;28.13;;
50483;SDS011;36409;52.168;20.878;2022-11-20T11:02:18;45.00;;;27.57;;
50483;SDS011;36409;52.168;20.878;2022-11-20T11:04:49;50.07;;;28.80;;
50483;SDS011;36409;52.168;20.878;2022-11-20T11:07:20;49.90;;;29.27;;
50483;SDS011;36409;52.168;20.878;2022-11-20T11:09:53;43.75;;;27.07;;
50483;SDS011;36409;52.168;20.878;2022-11-20T11:12:23;46.50;;;26.93;;
50483;SDS011;36409;52.168;20.878;2022-11-20T11:14:56;39.80;;;25.17;;
50483;SDS011;36409;52.168;20.878;2022-11-20T11:17:27;42.53;;;26.17;;
50483;SDS011;36409;52.168;20.878;2022-11-20T11:20:14;43.07;;;25.23;;
50483;SDS011;36409;52.168;20.878;2022-11-20T11:22:45;41.47;;;25.07;;
50483;SDS011;36409;52.168;20.878;2022-11-20T11:25:20;43.17;;;26.63;;
50483;SDS011;36409;52.168;20.878;2022-11-20T11:27:52;44.90;;;24.73;;
50483;SDS011;36409;52.168;20.878;2022-11-20T11:30:27;45.87;;;25.77;;
50483;SDS011;36409;52.168;20.878;2022-11-20T11:33:10;41.77;;;25.20;;
50483;SDS011;36409;52.168;20.878;2022-11-20T11:35:44;42.43;;;24.80;;
50483;SDS011;36409;52.168;20.878;2022-11-20T11:38:21;42.55;;;25.10;;
50483;SDS011;36409;52.168;20.878;2022-11-20T11:40:57;40.33;;;23.50;;
50483;SDS011;36409;52.168;20.878;2022-11-20T11:43:26;42.10;;;24.17;;
50483;SDS011;36409;52.168;20.878;2022-11-20T11:46:25;44.93;;;26.83;;
50483;SDS011;36409;52.168;20.878;2022-11-20T11:49:08;45.30;;;24.17;;
50483;SDS011;36409;52.168;20.878;2022-11-20T11:51:46;44.57;;;25.67;;
50483;SDS011;36409;52.168;20.878;2022-11-20T11:54:28;50.03;;;25.83;;
50483;SDS011;36409;52.168;20.878;2022-11-20T11:57:03;46.47;;;26.47;;
50483;SDS011;36409;52.168;20.878;2022-11-20T11:59:44;43.23;;;24.87;;
50483;SDS011;36409;52.168;20.878;2022-11-20T12:02:31;40.60;;;24.67;;
50483;SDS011;36409;52.168;20.878;2022-11-20T12:05:18;42.07;;;24.73;;
50483;SDS011;36409;52.168;20.878;2022-11-20T12:07:51;44.80;;;23.83;;
50483;SDS011;36409;52.168;20.878;2022-11-20T12:10:28;38.47;;;21.67;;
50483;SDS011;36409;52.168;20.878;2022-11-20T12:13:11;39.03;;;22.13;;
50483;SDS011;36409;52.168;20.878;2022-11-20T12:15:50;41.03;;;23.90;;
50483;SDS011;36409;52.168;20.878;2022-11-20T12:18:20;42.03;;;23.70;;
50483;SDS011;36409;52.168;20.878;2022-11-20T12:20:55;43.40;;;23.90;;
50483;SDS011;36409;52.168;20.878;2022-11-20T12:23:42;44.47;;;24.60;;
50483;SDS011;36409;52.168;20.878;2022-11-20T12:26:22;45.93;;;25.70;;
50483;SDS011;36409;52.168;20.878;2022-11-20T12:29:06;41.07;;;24.07;;
50483;SDS011;36409;52.168;20.878;2022-11-20T12:31:44;40.07;;;23.40;;
50483;SDS011;36409;52.168;20.878;2022-11-20T12:34:50;46.00;;;24.33;;
50483;SDS011;36409;52.168;20.878;2022-11-20T12:37:43;46.17;;;25.50;;
50483;SDS011;36409;52.168;20.878;2022-11-20T12:40:27;46.20;;;25.27;;
50483;SDS011;36409;52.168;20.878;2022-11-20T12:43:06;42.73;;;24.00;;
50483;SDS011;36409;52.168;20.878;2022-11-20T12:46:14;42.20;;;21.60;;
50483;SDS011;36409;52.168;20.878;2022-11-20T12:48:59;46.23;;;24.80;;
50483;SDS011;36409;52.168;20.878;2022-11-20T12:51:58;38.97;;;22.97;;
50483;SDS011;36409;52.168;20.878;2022-11-20T12:54:46;43.50;;;24.93;;
50483;SDS011;36409;52.168;20.878;2022-11-20T12:57:33;41.47;;;24.77;;
50483;SDS011;36409;52.168;20.878;2022-11-20T13:00:18;40.53;;;23.83;;
50483;SDS011;36409;52.168;20.878;2022-11-20T13:03:09;47.87;;;26.07;;
50483;SDS011;36409;52.168;20.878;2022-11-20T13:05:57;44.77;;;25.37;;
50483;SDS011;36409;52.168;20.878;2022-11-20T13:08:34;42.83;;;23.87;;
50483;SDS011;36409;52.168;20.878;2022-11-20T13:11:07;42.00;;;24.47;;
50483;SDS011;36409;52.168;20.878;2022-11-20T13:13:45;45.23;;;25.10;;
50483;SDS011;36409;52.168;20.878;2022-11-20T13:19:08;43.73;;;22.20;;
50483;SDS011;36409;52.168;20.878;2022-11-20T13:21:40;43.95;;;23.22;;
50483;SDS011;36409;52.168;20.878;2022-11-20T13:24:21;52.83;;;27.23;;
50483;SDS011;36409;52.168;20.878;2022-11-20T13:27:00;49.97;;;26.30;;
50483;SDS011;36409;52.168;20.878;2022-11-20T13:29:34;54.83;;;29.63;;
50483;SDS011;36409;52.168;20.878;2022-11-20T13:32:13;50.57;;;27.33;;
50483;SDS011;36409;52.168;20.878;2022-11-20T13:34:52;45.20;;;25.83;;
50483;SDS011;36409;52.168;20.878;2022-11-20T13:37:27;43.23;;;23.90;;
50483;SDS011;36409;52.168;20.878;2022-11-20T13:40:19;44.27;;;24.77;;
50483;SDS011;36409;52.168;20.878;2022-11-20T13:42:56;46.93;;;25.83;;
50483;SDS011;36409;52.168;20.878;2022-11-20T13:45:31;46.47;;;25.60;;
50483;SDS011;36409;52.168;20.878;2022-11-20T13:48:02;53.13;;;29.47;;
50483;SDS011;36409;52.168;20.878;2022-11-20T13:50:48;60.47;;;31.63;;
50483;SDS011;36409;52.168;20.878;2022-11-20T13:56:46;41.43;;;23.83;;
50483;SDS011;36409;52.168;20.878;2022-11-20T13:59:30;45.53;;;25.43;;
50483;SDS011;36409;52.168;20.878;2022-11-20T14:02:17;43.70;;;24.87;;
50483;SDS011;36409;52.168;20.878;2022-11-20T14:04:49;43.53;;;25.23;;
50483;SDS011;36409;52.168;20.878;2022-11-20T14:07:21;44.90;;;24.70;;
50483;SDS011;36409;52.168;20.878;2022-11-20T14:09:56;50.37;;;25.87;;
50483;SDS011;36409;52.168;20.878;2022-11-20T14:12:28;55.33;;;25.87;;
50483;SDS011;36409;52.168;20.878;2022-11-20T14:14:58;47.73;;;26.20;;
50483;SDS011;36409;52.168;20.878;2022-11-20T14:17:30;50.55;;;27.10;;
50483;SDS011;36409;52.168;20.878;2022-11-20T14:20:15;49.20;;;25.53;;
50483;SDS011;36409;52.168;20.878;2022-11-20T14:22:50;45.80;;;25.90;;
50483;SDS011;36409;52.168;20.878;2022-11-20T14:25:20;46.30;;;25.67;;
50483;SDS011;36409;52.168;20.878;2022-11-20T14:27:51;49.87;;;25.93;;
50483;SDS011;36409;52.168;20.878;2022-11-20T14:30:22;50.37;;;27.33;;
50483;SDS011;36409;52.168;20.878;2022-11-20T14:32:54;52.77;;;27.87;;
50483;SDS011;36409;52.168;20.878;2022-11-20T14:35:28;53.80;;;28.40;;
50483;SDS011;36409;52.168;20.878;2022-11-20T14:38:01;50.47;;;27.03;;
50483;SDS011;36409;52.168;20.878;2022-11-20T14:40:32;47.30;;;27.13;;
50483;SDS011;36409;52.168;20.878;2022-11-20T14:43:14;53.47;;;27.97;;
50483;SDS011;36409;52.168;20.878;2022-11-20T14:45:47;48.37;;;27.47;;
50483;SDS011;36409;52.168;20.878;2022-11-20T14:48:23;53.43;;;28.73;;
50483;SDS011;36409;52.168;20.878;2022-11-20T14:50:57;54.73;;;29.10;;
50483;SDS011;36409;52.168;20.878;2022-11-20T14:53:26;48.37;;;28.37;;
50483;SDS011;36409;52.168;20.878;2022-11-20T14:55:57;50.83;;;27.73;;
50483;SDS011;36409;52.168;20.878;2022-11-20T14:58:28;55.40;;;30.20;;
50483;SDS011;36409;52.168;20.878;2022-11-20T15:01:01;52.47;;;30.13;;